Rechercher aéroport 
image banner adimage banner ad
image banner ad

DNIL - Ilorin/Ilorin

Situé à Ilorin, Nigeria

ICAO - DNIL, IATA - ILR

Données fournies par Airmate  

Information générale

Coordonnées: N8°26'24" E4°29'38"
Élévation : 1126 feet MSL.
 
Voir autres Aéroports à Kwara

Données opérationnelles

Accessible au public
Heure actuelle UTC:
Heure actuelle locale:
Météo
METAR: DNIL 230400Z 18007KT 6000 BR SCT010 23/22 Q1014
TAF: TAF DNIL 230500Z 2306/2412 18005KT 3000 BR SCT010 BECMG 2307/2309 5000 BKN006 BECMG 2309/2311 25010KT 9999 NSW BKN010 PROB30 2312/2316 07015KT 5000 -TSRA BKN008 FEW018CB
Voir NOTAMs / SUP AIP / TFR affectant cet aéroport [VIEW]
Fréquences de communication: [VIEW]

Pistes:

Identifiant RWYQFULongueur (ft)Largeur (ft)SurfaceLDA (ft)
0549°10169197ASP
23229°10171197

Coordonnées de l'aéroport

Adresse: Ilorin Nigeria

Vue satellite de DNIL